Time;durP1;ratioP1;P1;durP2;ratioP2;P2;SDS_P1;SDS_P2;PMS_P1;PMS_P2;Temp;Humidity;BMP_temperature;BMP_pressure;BME280_temperature;BME280_humidity;BME280_pressure;Samples;Min_cycle;Max_cycle;Signal;HPM_P1;HPM_P2
2023/10/28 13:48:31;;;;;;;9.88;3.05;;;12.50;99.90;;;;;;5073834;28;20533;-77
2023/10/28 13:51:00;;;;;;;19.50;8.85;;;12.40;99.90;;;;;;5073344;28;20184;-77
2023/10/28 13:53:29;;;;;;;11.68;4.90;;;12.30;99.90;;;;;;5091099;28;20157;-77
2023/10/28 13:55:59;;;;;;;15.85;6.32;;;12.30;99.90;;;;;;5070288;28;20554;-77
2023/10/28 13:58:24;;;;;;;16.40;8.80;;;12.20;99.90;;;;;;5049746;28;20185;-78
2023/10/28 14:00:50;;;;;;;12.77;6.68;;;12.20;99.90;;;;;;5056120;28;20251;-78
2023/10/28 14:03:17;;;;;;;8.50;3.90;;;12.20;99.90;;;;;;5048683;28;20201;-78
2023/10/28 14:06:21;;;;;;;9.77;3.83;;;12.20;99.90;;;;;;5068491;28;20257;-77
2023/10/28 14:08:47;;;;;;;8.73;2.72;;;12.20;99.90;;;;;;5051783;28;20178;-79
2023/10/28 14:11:13;;;;;;;8.25;3.13;;;12.10;99.90;;;;;;5051338;28;20189;-79
2023/10/28 14:13:39;;;;;;;6.65;2.60;;;12.10;99.90;;;;;;5065491;28;20187;-79
2023/10/28 14:16:25;;;;;;;8.25;2.95;;;12.10;99.90;;;;;;5090357;28;20232;-77
2023/10/28 14:18:57;;;;;;;8.73;2.90;;;12.00;99.90;;;;;;5071999;28;20529;-77
2023/10/28 14:21:24;;;;;;;9.13;2.72;;;12.00;99.90;;;;;;5065859;28;20174;-77
2023/10/28 14:23:51;;;;;;;6.53;2.88;;;11.90;99.90;;;;;;5052361;28;20162;-77
2023/10/28 14:26:17;;;;;;;6.35;2.80;;;11.90;99.90;;;;;;5053049;28;20194;-77
2023/10/28 14:28:44;;;;;;;8.85;3.25;;;11.80;99.90;;;;;;5052833;28;20185;-77
2023/10/28 14:31:11;;;;;;;8.00;3.30;;;11.80;99.90;;;;;;5062641;28;20173;-77
2023/10/28 14:33:37;;;;;;;11.13;4.57;;;11.80;99.90;;;;;;5072622;28;20173;-77
2023/10/28 14:36:07;;;;;;;19.40;6.70;;;11.80;99.90;;;;;;5090110;28;20191;-77
2023/10/28 14:38:33;;;;;;;16.08;8.25;;;11.80;99.90;;;;;;5058181;28;20315;-77
2023/10/28 14:41:00;;;;;;;13.05;4.55;;;11.70;99.90;;;;;;5063810;28;20201;-77
2023/10/28 14:43:26;;;;;;;10.95;3.35;;;11.70;99.90;;;;;;5062664;28;20182;-77
2023/10/28 14:45:52;;;;;;;7.75;3.60;;;11.60;99.90;;;;;;5034541;28;20265;-77
2023/10/28 14:48:18;;;;;;;11.85;3.80;;;11.50;99.90;;;;;;5041010;28;20230;-77
2023/10/28 14:50:50;;;;;;;10.85;3.50;;;11.50;99.90;;;;;;5080903;28;20192;-77
2023/10/28 14:53:17;;;;;;;23.48;16.80;;;11.50;99.90;;;;;;5072205;28;20209;-77
2023/10/28 14:55:43;;;;;;;75.32;58.85;;;11.50;99.90;;;;;;5072239;28;20177;-77
2023/10/28 14:58:13;;;;;;;21.48;12.73;;;11.50;99.90;;;;;;5069047;28;20218;-77
2023/10/28 15:00:40;;;;;;;17.33;13.20;;;11.40;99.90;;;;;;5057855;28;20178;-77
2023/10/28 15:03:06;;;;;;;11.30;6.25;;;11.30;99.90;;;;;;5053939;28;20181;-77
2023/10/28 15:05:33;;;;;;;17.52;10.20;;;11.30;99.90;;;;;;5038371;28;20648;-78
2023/10/28 15:07:58;;;;;;;19.52;13.07;;;11.20;99.90;;;;;;5031008;28;20186;-77
2023/10/28 15:10:24;;;;;;;25.52;18.80;;;11.20;99.90;;;;;;5033600;28;20212;-78
2023/10/28 15:12:50;;;;;;;20.00;12.93;;;11.20;99.90;;;;;;5041174;28;20186;-78
2023/10/28 15:15:16;;;;;;;15.48;11.98;;;11.10;99.90;;;;;;5040814;28;20179;-78
2023/10/28 15:17:59;;;;;;;14.07;6.53;;;11.10;99.90;;;;;;5041788;28;20259;-79
2023/10/28 15:20:29;;;;;;;13.52;4.28;;;11.00;99.90;;;;;;5049802;28;20170;-80
2023/10/28 15:22:55;;;;;;;20.30;14.60;;;11.00;99.90;;;;;;5061382;28;20181;-78
2023/10/28 15:25:20;;;;;;;11.30;6.75;;;11.00;99.90;;;;;;5060904;28;20181;-78
2023/10/28 15:27:46;;;;;;;24.95;21.70;;;10.90;99.90;;;;;;5077361;28;20197;-78
2023/10/28 15:30:12;;;;;;;15.13;11.60;;;11.00;99.90;;;;;;5060574;28;20590;-78
2023/10/28 15:32:39;;;;;;;15.18;13.35;;;11.00;99.90;;;;;;5058940;28;20596;-77
2023/10/28 15:35:07;;;;;;;18.98;15.02;;;10.90;99.90;;;;;;5034995;28;20195;-77
2023/10/28 15:37:33;;;;;;;13.35;9.60;;;10.90;99.90;;;;;;5018418;28;20265;-77
2023/10/28 15:39:59;;;;;;;15.68;10.77;;;10.90;99.90;;;;;;5023042;28;20175;-78
2023/10/28 15:42:24;;;;;;;11.23;9.20;;;10.90;99.90;;;;;;5043015;28;20204;-78
2023/10/28 15:44:53;;;;;;;10.75;5.57;;;10.90;99.90;;;;;;5038482;28;20220;-78
2023/10/28 15:47:19;;;;;;;8.50;4.68;;;11.00;99.90;;;;;;5037195;28;20218;-77
2023/10/28 15:49:44;;;;;;;7.55;3.50;;;10.90;99.90;;;;;;5045268;28;20208;-77
2023/10/28 15:52:10;;;;;;;8.82;3.50;;;10.90;99.90;;;;;;5048571;28;20266;-77
2023/10/28 15:54:36;;;;;;;7.78;3.80;;;11.00;99.90;;;;;;5034674;28;20273;-77
2023/10/28 15:57:02;;;;;;;8.73;3.40;;;10.90;99.90;;;;;;5037793;28;20205;-77
2023/10/28 15:59:28;;;;;;;9.23;3.10;;;11.00;99.90;;;;;;5030864;28;20215;-77
2023/10/28 16:01:53;;;;;;;7.07;2.90;;;11.00;99.90;;;;;;5035584;28;20190;-77
2023/10/28 16:04:19;;;;;;;8.73;3.78;;;11.00;99.90;;;;;;5037202;28;20182;-77
2023/10/28 16:06:45;;;;;;;6.82;3.25;;;10.90;99.90;;;;;;5037816;28;20277;-78
2023/10/28 16:09:12;;;;;;;7.18;3.00;;;10.90;99.90;;;;;;5038187;28;20637;-78
2023/10/28 16:11:38;;;;;;;8.20;4.13;;;10.90;99.90;;;;;;5035122;28;20221;-78
2023/10/28 16:14:04;;;;;;;8.32;4.45;;;10.80;99.90;;;;;;5037753;28;20220;-78
2023/10/28 16:16:30;;;;;;;22.23;14.15;;;10.80;99.90;;;;;;5028784;28;20220;-77
2023/10/28 16:18:57;;;;;;;12.52;6.00;;;10.70;99.90;;;;;;5035299;28;20171;-77
2023/10/28 16:21:23;;;;;;;10.25;4.55;;;10.70;99.90;;;;;;5026509;28;20215;-77
2023/10/28 16:23:50;;;;;;;10.85;7.78;;;10.70;99.90;;;;;;5025103;28;20182;-77
2023/10/28 16:26:16;;;;;;;11.52;6.25;;;10.60;99.90;;;;;;5021580;28;20209;-77
2023/10/28 16:28:42;;;;;;;9.57;4.50;;;10.60;99.90;;;;;;5018472;28;20210;-77
2023/10/28 16:31:07;;;;;;;6.95;3.63;;;10.60;99.90;;;;;;5037417;28;20205;-77
2023/10/28 16:33:34;;;;;;;7.53;3.40;;;10.60;99.90;;;;;;5044497;28;20183;-77
2023/10/28 16:35:59;;;;;;;11.43;3.97;;;10.60;99.90;;;;;;5017498;28;20252;-77
2023/10/28 16:38:25;;;;;;;8.73;4.50;;;10.60;99.90;;;;;;5017486;28;20206;-77
2023/10/28 16:40:55;;;;;;;7.53;4.03;;;10.60;99.90;;;;;;5029548;28;20668;-76
2023/10/28 16:43:25;;;;;;;7.00;3.22;;;10.50;99.90;;;;;;5053606;28;20205;-77
2023/10/28 16:45:57;;;;;;;8.30;2.60;;;10.50;99.90;;;;;;5037175;28;20173;-77
2023/10/28 16:48:33;;;;;;;3.80;2.08;;;10.60;99.90;;;;;;5036142;28;20263;-77
2023/10/28 16:50:58;;;;;;;6.68;2.25;;;10.60;99.90;;;;;;5036794;28;20210;-77
2023/10/28 16:53:24;;;;;;;5.00;2.10;;;10.60;99.90;;;;;;5036212;28;20201;-77
2023/10/28 16:56:04;;;;;;;3.70;2.10;;;10.60;99.90;;;;;;5052254;28;20276;-77
2023/10/28 16:58:30;;;;;;;4.68;1.92;;;10.60;99.90;;;;;;5056140;28;20205;-82
2023/10/28 17:00:55;;;;;;;4.63;1.90;;;10.60;99.90;;;;;;5039030;28;20171;-80
2023/10/28 17:03:21;;;;;;;8.00;2.75;;;10.60;99.90;;;;;;5057163;28;20170;-80
2023/10/28 17:05:47;;;;;;;6.45;2.45;;;10.50;99.90;;;;;;5052513;28;20173;-79
2023/10/28 17:08:13;;;;;;;5.60;2.13;;;10.50;99.90;;;;;;5074265;28;20656;-79
2023/10/28 17:10:38;;;;;;;4.68;2.30;;;10.50;99.90;;;;;;5073310;28;20182;-77
2023/10/28 17:13:06;;;;;;;5.10;2.78;;;10.50;99.90;;;;;;5042157;28;20194;-79
2023/10/28 17:15:36;;;;;;;9.63;4.13;;;10.50;99.90;;;;;;5050063;28;20190;-78
2023/10/28 17:18:02;;;;;;;4.95;2.97;;;10.50;99.90;;;;;;5036359;28;20201;-78
2023/10/28 17:20:27;;;;;;;6.45;3.30;;;10.60;99.90;;;;;;5039832;28;20253;-78
2023/10/28 17:22:53;;;;;;;9.90;2.72;;;10.60;99.90;;;;;;5073276;28;20169;-78
2023/10/28 17:25:18;;;;;;;6.30;2.45;;;10.60;99.90;;;;;;5056116;28;20178;-78
2023/10/28 17:27:45;;;;;;;2.97;2.13;;;10.70;99.90;;;;;;5073431;28;20198;-78
2023/10/28 17:30:13;;;;;;;6.82;2.65;;;10.70;99.90;;;;;;5071264;28;20181;-78
2023/10/28 17:32:40;;;;;;;7.18;2.53;;;10.80;99.90;;;;;;5040733;28;20239;-79
2023/10/28 17:35:10;;;;;;;7.15;2.40;;;10.90;99.90;;;;;;5037597;28;20668;-79
2023/10/28 17:37:36;;;;;;;3.40;2.28;;;10.80;99.90;;;;;;5035591;28;20206;-79
2023/10/28 17:40:04;;;;;;;4.65;2.40;;;10.80;99.90;;;;;;5034960;28;20178;-78
2023/10/28 17:42:30;;;;;;;11.20;8.77;;;10.90;99.90;;;;;;5034416;28;20166;-78
2023/10/28 17:44:59;;;;;;;9.98;8.52;;;11.00;99.90;;;;;;5036226;28;20172;-79
2023/10/28 17:47:25;;;;;;;8.32;5.03;;;11.10;99.90;;;;;;5035218;28;20221;-78
2023/10/28 17:49:50;;;;;;;8.88;4.32;;;11.00;99.90;;;;;;5033823;28;20166;-78
2023/10/28 17:52:16;;;;;;;4.65;3.33;;;10.90;99.90;;;;;;5034885;28;20641;-78
2023/10/28 17:54:41;;;;;;;9.63;3.60;;;10.90;99.90;;;;;;5035495;28;20533;-78
2023/10/28 17:57:08;;;;;;;6.78;4.28;;;10.90;99.90;;;;;;5036021;28;20296;-78
2023/10/28 17:59:35;;;;;;;5.35;3.80;;;10.90;99.90;;;;;;5036189;28;20246;-78
2023/10/28 18:02:01;;;;;;;3.88;2.80;;;10.80;99.90;;;;;;5053038;28;20559;-78
2023/10/28 18:04:27;;;;;;;4.38;3.00;;;10.80;99.90;;;;;;5036411;28;20178;-78
2023/10/28 18:06:53;;;;;;;4.60;2.60;;;10.80;99.90;;;;;;5035222;28;20194;-78
2023/10/28 18:09:20;;;;;;;6.38;3.15;;;10.80;99.90;;;;;;5035328;28;20185;-78
2023/10/28 18:11:46;;;;;;;6.90;2.90;;;10.80;99.90;;;;;;5052875;28;20188;-78
2023/10/28 18:14:11;;;;;;;4.28;2.40;;;10.80;99.90;;;;;;5035191;28;20268;-77
2023/10/28 18:16:37;;;;;;;6.10;2.03;;;10.80;99.90;;;;;;5035550;28;20206;-78
2023/10/28 18:19:04;;;;;;;5.75;2.33;;;10.90;99.90;;;;;;5035270;28;20174;-78
2023/10/28 18:21:30;;;;;;;5.97;2.70;;;10.80;99.90;;;;;;5045383;28;20184;-78
2023/10/28 18:23:56;;;;;;;7.88;2.55;;;10.90;99.90;;;;;;5072132;28;20174;-78
2023/10/28 18:26:22;;;;;;;3.95;2.30;;;10.90;99.90;;;;;;5071947;28;20201;-78
2023/10/28 18:28:49;;;;;;;6.80;2.28;;;10.90;99.90;;;;;;5072048;28;20173;-78
2023/10/28 18:31:18;;;;;;;6.60;2.65;;;10.90;99.90;;;;;;5055065;28;20251;-78
2023/10/28 18:33:52;;;;;;;4.05;2.22;;;10.80;99.90;;;;;;5074000;28;20541;-78
2023/10/28 18:36:20;;;;;;;5.88;2.22;;;10.80;99.90;;;;;;5058866;28;20200;-78
2023/10/28 18:38:49;;;;;;;5.93;2.35;;;10.80;99.90;;;;;;5076620;28;20776;-78
2023/10/28 18:41:15;;;;;;;7.15;2.28;;;10.90;99.90;;;;;;5051735;28;20182;-78
2023/10/28 18:43:40;;;;;;;5.82;2.30;;;10.90;99.90;;;;;;5038718;28;20648;-78
2023/10/28 18:46:07;;;;;;;5.95;2.22;;;10.90;99.90;;;;;;5038484;28;20197;-78
2023/10/28 18:48:32;;;;;;;6.20;2.22;;;11.00;99.90;;;;;;5038913;28;20204;-78
2023/10/28 18:51:08;;;;;;;3.17;1.95;;;11.00;99.90;;;;;;5044759;28;20695;-78
2023/10/28 18:53:38;;;;;;;4.68;1.98;;;11.00;99.90;;;;;;5072242;28;20276;-78
2023/10/28 18:56:09;;;;;;;7.15;2.20;;;11.00;99.90;;;;;;5038451;28;20753;-78
2023/10/28 18:58:36;;;;;;;6.07;2.10;;;11.00;99.90;;;;;;5038346;28;20202;-78
2023/10/28 19:01:05;;;;;;;4.60;2.33;;;11.00;99.90;;;;;;5038548;28;20163;-78
2023/10/28 19:03:31;;;;;;;5.15;2.28;;;11.10;99.90;;;;;;5039221;28;20186;-78
2023/10/28 19:05:57;;;;;;;6.82;3.85;;;11.00;99.90;;;;;;5038933;28;20599;-78
2023/10/28 19:08:23;;;;;;;14.43;4.43;;;11.00;99.90;;;;;;5038530;28;20174;-78
2023/10/28 19:10:52;;;;;;;12.48;4.03;;;10.90;99.90;;;;;;5061083;28;20636;-79
2023/10/28 19:13:19;;;;;;;7.45;3.15;;;10.90;99.90;;;;;;5059377;28;20182;-79
2023/10/28 19:15:46;;;;;;;5.93;2.72;;;11.00;99.90;;;;;;5061159;28;20212;-79
2023/10/28 19:18:11;;;;;;;11.95;8.18;;;10.90;99.90;;;;;;5061676;28;20198;-79
2023/10/28 19:20:37;;;;;;;17.27;10.75;;;10.90;99.90;;;;;;5077810;28;20265;-79
2023/10/28 19:23:03;;;;;;;13.05;9.98;;;10.90;99.90;;;;;;5060942;28;20178;-79
2023/10/28 19:25:29;;;;;;;10.27;5.28;;;10.90;99.90;;;;;;5078630;28;20235;-79
2023/10/28 19:27:54;;;;;;;8.07;3.20;;;10.90;99.90;;;;;;5077615;28;20201;-79
2023/10/28 19:30:20;;;;;;;8.38;3.28;;;10.90;99.90;;;;;;5077928;28;20178;-79
2023/10/28 19:32:46;;;;;;;4.75;2.30;;;11.00;99.90;;;;;;5078102;28;20181;-79
2023/10/28 19:35:12;;;;;;;7.72;2.47;;;11.00;99.90;;;;;;5078005;28;20265;-79
2023/10/28 19:37:40;;;;;;;4.40;2.60;;;11.00;99.90;;;;;;5060821;28;20201;-79
2023/10/28 19:40:07;;;;;;;4.65;2.38;;;11.00;99.90;;;;;;5060991;28;20178;-79
2023/10/28 19:42:32;;;;;;;6.43;2.50;;;11.00;99.90;;;;;;5060580;28;20169;-79
2023/10/28 19:44:58;;;;;;;5.25;2.40;;;11.00;99.90;;;;;;5060849;28;20230;-80
2023/10/28 19:47:24;;;;;;;6.88;3.00;;;10.90;99.90;;;;;;5077202;28;20227;-79
2023/10/28 19:49:50;;;;;;;4.40;2.58;;;10.90;99.90;;;;;;5078964;28;20184;-79
2023/10/28 19:52:16;;;;;;;11.32;2.55;;;11.00;99.90;;;;;;5060993;28;20641;-79
2023/10/28 19:54:42;;;;;;;5.28;2.30;;;11.00;99.90;;;;;;5056272;28;20169;-78
2023/10/28 19:57:08;;;;;;;8.85;2.90;;;11.00;99.90;;;;;;5054964;28;20194;-78
2023/10/28 19:59:34;;;;;;;4.50;2.30;;;10.90;99.90;;;;;;5039994;28;20171;-79
2023/10/28 20:02:00;;;;;;;9.20;2.45;;;10.90;99.90;;;;;;5052918;28;20548;-79
2023/10/28 20:04:25;;;;;;;4.80;2.13;;;10.80;99.90;;;;;;5070015;28;20174;-79
2023/10/28 20:06:52;;;;;;;5.07;2.10;;;10.90;99.90;;;;;;5041187;28;20210;-79
2023/10/28 20:09:18;;;;;;;5.95;2.28;;;11.00;99.90;;;;;;5041467;28;20186;-80
2023/10/28 20:11:44;;;;;;;5.88;2.47;;;11.00;99.90;;;;;;5041423;28;20348;-79
2023/10/28 20:14:10;;;;;;;7.95;3.22;;;11.00;99.90;;;;;;5041273;28;20182;-79
2023/10/28 20:16:36;;;;;;;8.55;3.20;;;11.00;99.90;;;;;;5041015;28;20194;-79
2023/10/28 20:19:01;;;;;;;7.53;2.97;;;10.90;99.90;;;;;;5041219;28;20184;-79
2023/10/28 20:21:27;;;;;;;5.45;2.80;;;11.00;99.90;;;;;;5048230;28;20204;-80
2023/10/28 20:23:54;;;;;;;7.25;2.78;;;11.00;99.90;;;;;;5077859;28;20184;-80
2023/10/28 20:26:20;;;;;;;5.55;2.53;;;11.00;99.90;;;;;;5077605;28;20197;-79
2023/10/28 20:28:46;;;;;;;5.68;2.53;;;11.00;99.90;;;;;;5077130;28;20193;-79
2023/10/28 20:31:13;;;;;;;8.27;3.35;;;11.00;99.90;;;;;;5060249;28;20223;-79
2023/10/28 20:33:39;;;;;;;7.03;3.10;;;10.90;99.90;;;;;;5077314;28;20192;-80
2023/10/28 20:36:05;;;;;;;7.15;2.53;;;11.00;99.90;;;;;;5077503;28;20280;-79
2023/10/28 20:38:30;;;;;;;7.30;3.05;;;11.00;99.90;;;;;;5076277;28;20284;-79
2023/10/28 20:40:56;;;;;;;8.60;3.35;;;11.00;99.90;;;;;;5076735;28;20258;-79
2023/10/28 20:43:22;;;;;;;5.70;3.38;;;11.00;99.90;;;;;;5076149;28;20177;-79
2023/10/28 20:45:48;;;;;;;6.78;2.90;;;10.90;99.90;;;;;;5076388;28;20240;-78
2023/10/28 20:48:15;;;;;;;6.28;2.40;;;10.90;99.90;;;;;;5058741;28;20659;-78
2023/10/28 20:50:41;;;;;;;8.50;3.10;;;10.90;99.90;;;;;;5076279;28;20230;-79
2023/10/28 20:53:06;;;;;;;8.23;2.78;;;11.00;99.90;;;;;;5060579;28;20272;-80
2023/10/28 20:55:35;;;;;;;10.15;3.00;;;10.90;99.90;;;;;;5076946;28;20185;-80
2023/10/28 20:58:01;;;;;;;7.47;2.58;;;10.90;99.90;;;;;;5076554;28;20201;-79
2023/10/28 21:00:26;;;;;;;6.30;2.55;;;11.00;99.90;;;;;;5077734;28;20347;-79
2023/10/28 21:02:52;;;;;;;5.68;2.83;;;10.90;99.90;;;;;;5076476;28;20714;-79
2023/10/28 21:05:18;;;;;;;5.25;2.53;;;10.90;99.90;;;;;;5076477;28;20173;-79
2023/10/28 21:07:43;;;;;;;6.32;2.55;;;10.80;99.90;;;;;;5077197;28;20208;-78
2023/10/28 21:10:10;;;;;;;4.95;2.92;;;10.90;99.90;;;;;;5076589;28;20212;-79
2023/10/28 21:12:35;;;;;;;6.13;3.45;;;10.80;99.90;;;;;;5060398;28;20207;-79
2023/10/28 21:15:03;;;;;;;4.47;2.70;;;10.80;99.90;;;;;;5040218;28;20199;-79
2023/10/28 21:17:28;;;;;;;3.67;2.40;;;10.90;99.90;;;;;;5056736;28;20190;-78
2023/10/28 21:19:54;;;;;;;7.28;3.30;;;10.80;99.90;;;;;;5039141;28;20175;-78
2023/10/28 21:22:19;;;;;;;7.15;2.75;;;10.90;99.90;;;;;;5052650;28;20177;-79
2023/10/28 21:24:46;;;;;;;6.45;2.63;;;10.90;99.90;;;;;;5058798;28;20273;-79
2023/10/28 21:27:11;;;;;;;8.43;2.78;;;10.90;99.90;;;;;;5058167;28;20202;-79
2023/10/28 21:29:37;;;;;;;5.30;2.60;;;10.90;99.90;;;;;;5074885;28;20226;-79
2023/10/28 21:32:02;;;;;;;7.95;2.70;;;10.90;99.90;;;;;;5074119;28;20174;-79
2023/10/28 21:34:29;;;;;;;7.05;2.80;;;11.00;99.90;;;;;;5075582;28;20197;-79
2023/10/28 21:36:55;;;;;;;6.78;2.70;;;10.90;99.90;;;;;;5049685;28;20297;-79
2023/10/28 21:39:22;;;;;;;7.30;2.97;;;11.00;99.90;;;;;;5027179;28;20190;-79
2023/10/28 21:41:48;;;;;;;8.52;3.03;;;10.90;99.90;;;;;;5033183;28;20185;-78
2023/10/28 21:44:14;;;;;;;5.85;2.60;;;10.90;99.90;;;;;;5033644;28;20170;-78
2023/10/28 21:46:40;;;;;;;7.00;2.53;;;10.90;99.90;;;;;;5033292;28;20206;-78
2023/10/28 21:49:08;;;;;;;6.10;2.55;;;10.90;99.90;;;;;;5034239;28;20225;-78
2023/10/28 21:52:11;;;;;;;6.15;2.72;;;10.90;99.90;;;;;;5035643;28;20625;-78
2023/10/28 21:54:38;;;;;;;7.20;2.97;;;11.00;99.90;;;;;;5038528;28;20154;-78
2023/10/28 21:57:03;;;;;;;10.20;2.67;;;10.90;99.90;;;;;;5040713;28;20199;-79
2023/10/28 21:59:35;;;;;;;7.05;2.80;;;10.90;99.90;;;;;;5040514;28;20174;-79
2023/10/28 22:02:12;;;;;;;8.10;2.53;;;10.90;99.90;;;;;;5041010;28;20655;-79
2023/10/28 22:04:42;;;;;;;5.63;3.30;;;10.90;99.90;;;;;;5038165;28;20201;-79
2023/10/28 22:07:18;;;;;;;7.65;2.80;;;11.00;99.90;;;;;;5036921;28;20202;-79
2023/10/28 22:09:56;;;;;;;7.40;2.90;;;10.90;99.90;;;;;;5039588;28;20170;-79
2023/10/28 22:12:31;;;;;;;6.60;3.00;;;10.90;99.90;;;;;;5040956;28;20174;-79
2023/10/28 22:18:19;;;;;;;6.00;2.58;;;10.70;99.90;;;;;;5058105;28;20216;-79
2023/10/28 22:20:45;;;;;;;5.18;2.80;;;10.70;99.90;;;;;;5040967;28;20193;-79
2023/10/28 22:23:12;;;;;;;6.18;2.75;;;10.70;99.90;;;;;;5060225;28;20174;-79
2023/10/28 22:25:39;;;;;;;6.32;2.92;;;10.70;99.90;;;;;;5079061;28;20187;-79
2023/10/28 22:28:06;;;;;;;6.70;3.00;;;10.70;99.90;;;;;;5062018;28;20578;-80
2023/10/28 22:30:32;;;;;;;9.35;3.15;;;10.70;99.90;;;;;;5060684;28;20174;-78
2023/10/28 22:32:58;;;;;;;6.10;2.75;;;10.80;99.90;;;;;;5077573;28;20220;-78
2023/10/28 22:35:25;;;;;;;8.38;2.83;;;10.70;99.90;;;;;;5075994;28;20212;-78
2023/10/28 22:37:52;;;;;;;6.28;2.90;;;10.70;99.90;;;;;;5075325;28;20202;-78
2023/10/28 22:40:19;;;;;;;10.65;3.30;;;10.70;99.90;;;;;;5058935;28;20644;-78
2023/10/28 22:42:50;;;;;;;9.05;3.00;;;10.70;99.90;;;;;;5059000;28;20655;-78
2023/10/28 22:45:16;;;;;;;7.45;3.20;;;10.80;99.90;;;;;;5075298;28;20177;-78
2023/10/28 22:47:42;;;;;;;6.00;2.80;;;10.80;99.90;;;;;;5075175;28;20223;-78
2023/10/28 22:50:09;;;;;;;7.25;2.90;;;10.80;99.90;;;;;;5075501;28;20560;-78
2023/10/28 22:52:35;;;;;;;9.43;3.38;;;10.80;99.90;;;;;;5046811;28;20194;-78
2023/10/28 22:55:01;;;;;;;6.68;2.97;;;10.80;99.90;;;;;;5040331;28;20186;-78
2023/10/28 22:57:26;;;;;;;6.20;3.00;;;10.90;99.90;;;;;;5040087;28;20294;-79
2023/10/28 22:59:52;;;;;;;9.38;2.95;;;10.90;99.90;;;;;;5039502;28;20538;-77
2023/10/28 23:02:18;;;;;;;7.65;3.17;;;10.90;99.90;;;;;;5039031;28;20272;-77
2023/10/28 23:04:43;;;;;;;4.93;2.70;;;10.80;99.90;;;;;;5025432;28;20646;-80
2023/10/28 23:07:09;;;;;;;6.00;3.08;;;10.80;99.90;;;;;;5019563;28;20194;-78
2023/10/28 23:09:35;;;;;;;6.82;3.40;;;10.80;99.90;;;;;;5018814;28;20179;-78
2023/10/28 23:12:01;;;;;;;6.60;3.10;;;10.80;99.90;;;;;;5018753;28;20179;-78
2023/10/28 23:14:27;;;;;;;5.43;3.05;;;10.90;99.90;;;;;;5018582;28;20202;-78
2023/10/28 23:16:54;;;;;;;7.38;2.70;;;10.90;99.90;;;;;;5018528;28;20306;-78
2023/10/28 23:19:19;;;;;;;7.35;2.78;;;11.00;99.90;;;;;;5017791;28;20171;-78
2023/10/28 23:21:45;;;;;;;9.20;2.72;;;10.90;99.90;;;;;;5018066;28;20225;-78
2023/10/28 23:24:11;;;;;;;5.72;2.38;;;11.00;99.90;;;;;;5020995;28;20179;-78
2023/10/28 23:26:37;;;;;;;7.57;3.03;;;10.90;99.90;;;;;;5023969;28;20227;-78
2023/10/28 23:29:03;;;;;;;8.57;3.20;;;10.90;99.90;;;;;;5021449;28;20218;-78
2023/10/28 23:31:28;;;;;;;8.80;2.90;;;10.80;99.90;;;;;;5024974;28;20179;-78
2023/10/28 23:33:54;;;;;;;7.43;3.30;;;10.80;99.90;;;;;;5076594;28;20189;-78
2023/10/28 23:36:20;;;;;;;7.25;3.17;;;10.80;99.90;;;;;;5079652;28;20189;-79
2023/10/28 23:38:46;;;;;;;6.18;3.13;;;10.80;99.90;;;;;;5080299;28;20300;-79
2023/10/28 23:41:11;;;;;;;14.07;3.55;;;10.70;99.90;;;;;;5080640;28;20180;-79
2023/10/28 23:43:37;;;;;;;4.75;2.78;;;10.80;99.90;;;;;;5063143;28;20189;-79
2023/10/28 23:46:09;;;;;;;10.75;3.55;;;10.90;99.90;;;;;;5081419;28;20174;-79
2023/10/28 23:48:35;;;;;;;9.25;3.30;;;10.80;99.90;;;;;;5079809;28;20185;-79
2023/10/28 23:51:01;;;;;;;6.75;3.08;;;10.80;99.90;;;;;;5079731;28;20251;-79
2023/10/28 23:53:27;;;;;;;6.13;2.97;;;10.90;99.90;;;;;;5071786;28;20659;-79
2023/10/28 23:55:52;;;;;;;6.78;2.80;;;10.90;99.90;;;;;;5059121;28;20555;-79
2023/10/28 23:58:18;;;;;;;7.82;3.00;;;10.90;99.90;;;;;;5075511;28;20664;-79
